Roblin, Canada
Current Conditions -  °F | °C
As of 3:28 AM on Friday 28 Nov 2014 (Local Time) from CYQV Reporting Station
Light Snow Light Snow  
Wind Chill: -23°   Ceiling: 2400
Heat Index: -14°   Visibility: 2mi
Dew Point: -16°   Wind: 12mph
Humidity: 85%   Direction: 50°NE
Pressure: 29.95"   Gusts: NA
Location:  51.23°N, 101.35°W
Report Text: CYQV 280928Z AUTO 05010KT 2SM -SN OVC024 M14/M16 A2995 RMK VIS VRB 1 1/4-3 SLP188
Loading
Personal Weather Stations






























Interactive Weather Map New forecast layout! Learn more

10-Day Weather Forecast

Advertisements
Track Severe Weather on mobile